createdAt,value
2017-12-05T00:01:12.047Z,17.47
2017-12-05T00:03:40.450Z,17.97
2017-12-05T00:06:09.576Z,16.80
2017-12-05T00:08:38.140Z,18.90
2017-12-05T00:11:06.572Z,17.90
2017-12-05T00:13:34.836Z,16.67
2017-12-05T00:16:03.189Z,17.80
2017-12-05T00:18:31.353Z,18.50
2017-12-05T00:21:00.488Z,20.30
2017-12-05T00:23:28.836Z,19.20
2017-12-05T00:25:56.869Z,18.90
2017-12-05T00:28:24.880Z,16.80
2017-12-05T00:30:53.268Z,17.63
2017-12-05T00:33:21.629Z,18.80
2017-12-05T00:35:50.428Z,18.30
2017-12-05T00:38:18.797Z,18.53
2017-12-05T00:40:47.158Z,18.50
2017-12-05T00:43:15.964Z,17.13
2017-12-05T00:45:43.660Z,16.60
2017-12-05T00:48:11.369Z,16.57
2017-12-05T00:50:39.736Z,15.07
2017-12-05T00:53:08.096Z,17.50
2017-12-05T00:55:36.473Z,18.27
2017-12-05T00:58:04.826Z,18.77
2017-12-05T01:00:32.856Z,20.00
2017-12-05T01:03:01.969Z,19.40
2017-12-05T01:05:30.390Z,16.00
2017-12-05T01:07:58.960Z,16.97
2017-12-05T01:10:27.336Z,14.50
2017-12-05T01:12:55.685Z,16.03
2017-12-05T01:15:24.795Z,17.83
2017-12-05T01:17:53.151Z,16.27
2017-12-05T01:20:22.275Z,18.37
2017-12-05T01:22:50.637Z,16.80
2017-12-05T01:25:18.983Z,20.40
2017-12-05T01:27:47.349Z,16.47
2017-12-05T01:30:15.696Z,16.70
2017-12-05T01:32:44.834Z,17.77
2017-12-05T01:35:13.196Z,16.37
2017-12-05T01:37:41.548Z,17.20
2017-12-05T01:40:09.578Z,15.63
2017-12-05T01:42:38.691Z,18.97
2017-12-05T01:45:07.045Z,14.80
2017-12-05T01:47:36.156Z,13.97
2017-12-05T01:50:03.857Z,17.80
2017-12-05T01:52:32.209Z,21.50
2017-12-05T01:55:00.569Z,17.93
2017-12-05T01:57:29.682Z,18.20
2017-12-05T01:59:57.711Z,11.47
2017-12-05T02:02:25.413Z,15.93
2017-12-05T02:04:53.246Z,13.43
2017-12-05T02:07:21.704Z,13.13
2017-12-05T02:09:49.711Z,15.47
2017-12-05T02:12:17.559Z,14.83
2017-12-05T02:14:46.342Z,13.43
2017-12-05T02:17:14.403Z,13.73
2017-12-05T02:19:42.088Z,11.50
2017-12-05T02:22:10.376Z,15.40
2017-12-05T02:24:38.728Z,16.27
2017-12-05T02:27:07.091Z,15.00
2017-12-05T02:29:35.445Z,19.40
2017-12-05T02:32:03.794Z,15.40
2017-12-05T02:34:32.162Z,12.87
2017-12-05T02:37:01.284Z,14.87
2017-12-05T02:39:29.644Z,14.00
2017-12-05T02:41:58.022Z,14.17
2017-12-05T02:44:27.027Z,14.83
2017-12-05T02:46:55.400Z,14.07
2017-12-05T02:49:23.417Z,13.87
2017-12-05T02:51:51.441Z,12.50
2017-12-05T02:54:19.459Z,14.97
2017-12-05T02:56:47.152Z,13.90
2017-12-05T02:59:15.602Z,15.27
2017-12-05T03:01:43.960Z,15.33
2017-12-05T03:04:11.984Z,12.90
2017-12-05T03:06:40.045Z,11.20
2017-12-05T03:09:09.156Z,13.63
2017-12-05T03:11:37.173Z,14.10
2017-12-05T03:14:05.536Z,8.77
2017-12-05T03:16:33.552Z,15.60
2017-12-05T03:19:02.881Z,12.87
2017-12-05T03:21:30.897Z,12.17
2017-12-05T03:23:59.257Z,15.03
2017-12-05T03:26:28.368Z,9.43
2017-12-05T03:28:56.813Z,15.67
2017-12-05T03:31:24.969Z,9.30
2017-12-05T03:33:53.124Z,12.40
2017-12-05T03:36:22.265Z,11.07
2017-12-05T03:38:50.611Z,8.93
2017-12-05T03:41:18.960Z,8.30
2017-12-05T03:43:47.300Z,12.03
2017-12-05T03:46:15.476Z,7.07
2017-12-05T03:48:43.831Z,14.20
2017-12-05T03:51:12.017Z,7.67
2017-12-05T03:53:40.368Z,11.30
2017-12-05T03:56:08.715Z,14.10
2017-12-05T03:58:37.074Z,13.57
2017-12-05T04:01:05.428Z,10.37
2017-12-05T04:03:33.781Z,7.37
2017-12-05T04:06:02.136Z,14.03
2017-12-05T04:08:31.257Z,10.00
2017-12-05T04:10:59.820Z,14.00
2017-12-05T04:13:29.750Z,11.73
2017-12-05T04:15:59.038Z,7.23
2017-12-05T04:18:27.383Z,10.87
2017-12-05T04:20:55.740Z,10.10
2017-12-05T04:23:24.081Z,10.10
2017-12-05T04:25:52.444Z,5.37
2017-12-05T04:28:21.556Z,8.83
2017-12-05T04:30:49.916Z,13.33
2017-12-05T04:33:19.030Z,12.50
2017-12-05T04:35:47.048Z,7.23
2017-12-05T04:38:15.402Z,9.53
2017-12-05T04:40:43.756Z,11.10
2017-12-05T04:43:12.120Z,8.83
2017-12-05T04:45:41.224Z,5.33
2017-12-05T04:48:09.584Z,7.57
2017-12-05T04:50:38.701Z,11.00
2017-12-05T04:53:07.054Z,7.60
2017-12-05T04:55:35.991Z,14.47
2017-12-05T04:58:04.359Z,9.10
2017-12-05T05:00:32.242Z,9.77
2017-12-05T05:03:00.584Z,11.10
2017-12-05T05:05:28.960Z,9.87
2017-12-05T05:07:57.304Z,5.90
2017-12-05T05:10:25.664Z,3.57
2017-12-05T05:12:54.020Z,10.50
2017-12-05T05:15:22.372Z,9.50
2017-12-05T05:17:50.746Z,12.53
2017-12-05T05:20:19.864Z,11.13
2017-12-05T05:22:48.226Z,10.57
2017-12-05T05:25:16.572Z,8.43
2017-12-05T05:27:44.741Z,8.93
2017-12-05T05:30:12.907Z,10.07
2017-12-05T05:32:41.068Z,7.77
2017-12-05T05:35:09.352Z,8.40
2017-12-05T05:37:37.876Z,8.53
2017-12-05T05:40:06.222Z,8.50
2017-12-05T05:42:34.584Z,10.13
2017-12-05T05:45:02.951Z,11.53
2017-12-05T05:47:31.953Z,12.67
2017-12-05T05:50:00.320Z,11.37
2017-12-05T05:52:28.712Z,12.67
2017-12-05T05:54:57.074Z,12.20
2017-12-05T05:57:26.692Z,10.60
2017-12-05T05:59:56.305Z,9.03
2017-12-05T06:02:26.072Z,12.27
2017-12-05T06:04:55.834Z,10.90
2017-12-05T06:07:25.302Z,10.97
2017-12-05T06:09:53.882Z,13.77
2017-12-05T06:12:22.240Z,12.63
2017-12-05T06:14:50.584Z,10.80
2017-12-05T06:17:18.977Z,14.83
2017-12-05T06:19:48.096Z,8.13
2017-12-05T06:22:16.488Z,13.00
2017-12-05T06:24:44.840Z,10.47
2017-12-05T06:27:13.212Z,12.63
2017-12-05T06:29:42.324Z,14.53
2017-12-05T06:32:10.824Z,13.13
2017-12-05T06:34:39.172Z,11.40
2017-12-05T06:37:07.523Z,12.10
2017-12-05T06:39:35.881Z,11.90
2017-12-05T06:42:03.704Z,9.00
2017-12-05T06:44:32.068Z,11.63
2017-12-05T06:47:01.182Z,7.93
2017-12-05T06:49:29.545Z,10.53
2017-12-05T06:51:57.993Z,8.57
2017-12-05T06:54:25.698Z,11.80
2017-12-05T06:56:53.452Z,9.10
2017-12-05T06:59:22.472Z,5.03
2017-12-05T07:01:50.175Z,9.00
2017-12-05T07:04:18.204Z,10.67
2017-12-05T07:06:46.229Z,10.53
2017-12-05T07:09:14.734Z,8.13
2017-12-05T07:11:42.757Z,10.90
2017-12-05T07:14:11.267Z,5.70
2017-12-05T07:16:40.040Z,6.47
2017-12-05T07:19:08.088Z,8.80
2017-12-05T07:21:36.472Z,6.60
2017-12-05T07:24:04.538Z,10.03
2017-12-05T07:26:32.549Z,6.30
2017-12-05T07:29:00.234Z,7.03
2017-12-05T07:31:28.582Z,4.50
2017-12-05T07:33:57.372Z,7.30
2017-12-05T07:36:26.164Z,8.10
2017-12-05T07:38:53.845Z,6.37
2017-12-05T07:41:21.874Z,4.17
2017-12-05T07:43:49.636Z,6.90
2017-12-05T07:46:17.320Z,8.70
2017-12-05T07:48:45.781Z,9.67
2017-12-05T07:51:14.229Z,9.73
2017-12-05T07:53:42.276Z,9.13
2017-12-05T07:56:10.276Z,7.97
2017-12-05T07:58:38.640Z,11.93
2017-12-05T08:01:06.662Z,12.13
2017-12-05T08:03:35.798Z,10.77
2017-12-05T08:06:03.476Z,12.07
2017-12-05T08:08:31.498Z,8.80
2017-12-05T08:10:59.194Z,9.40
2017-12-05T08:13:26.876Z,8.70
2017-12-05T08:15:54.580Z,8.53
2017-12-05T08:18:23.024Z,11.50
2017-12-05T08:20:50.721Z,12.53
2017-12-05T08:23:19.168Z,12.50
2017-12-05T08:25:46.659Z,7.57
2017-12-05T08:28:14.939Z,6.20
2017-12-05T08:30:42.728Z,8.00
2017-12-05T08:33:10.890Z,11.37
2017-12-05T08:35:39.270Z,9.33
2017-12-05T08:38:06.956Z,8.93
2017-12-05T08:40:34.488Z,11.10
2017-12-05T08:43:02.045Z,10.40
2017-12-05T08:45:29.721Z,9.10
2017-12-05T08:47:57.812Z,10.00
2017-12-05T08:50:25.589Z,11.53
2017-12-05T08:52:53.277Z,14.00
2017-12-05T08:55:21.729Z,13.50
2017-12-05T08:57:49.777Z,15.63
2017-12-05T09:00:17.459Z,14.43
2017-12-05T09:02:45.180Z,13.33
2017-12-05T09:05:12.892Z,7.77
2017-12-05T09:07:40.573Z,10.30
2017-12-05T09:10:09.348Z,9.50
2017-12-05T09:12:37.272Z,11.67
2017-12-05T09:15:05.290Z,12.83
2017-12-05T09:17:32.970Z,10.40
2017-12-05T09:20:01.786Z,10.60
2017-12-05T09:22:29.469Z,12.33
2017-12-05T09:24:57.154Z,8.90
2017-12-05T09:27:25.195Z,10.20
2017-12-05T09:29:53.023Z,8.50
2017-12-05T09:32:20.712Z,13.07
2017-12-05T09:34:48.428Z,14.40
2017-12-05T09:37:16.456Z,11.87
2017-12-05T09:39:44.137Z,12.70
2017-12-05T09:42:11.844Z,11.50
2017-12-05T09:44:39.552Z,11.60
2017-12-05T09:47:07.238Z,14.03
2017-12-05T09:49:34.953Z,13.57
2017-12-05T09:52:03.329Z,7.77
2017-12-05T09:54:31.412Z,12.00
2017-12-05T09:56:59.593Z,6.73
2017-12-05T09:59:27.293Z,7.80
2017-12-05T10:01:55.777Z,14.57
2017-12-05T10:04:24.243Z,9.30
2017-12-05T10:06:51.987Z,11.43
2017-12-05T10:09:20.585Z,14.87
2017-12-05T10:11:48.284Z,14.40
2017-12-05T10:14:15.969Z,14.10
2017-12-05T10:16:43.659Z,15.33
2017-12-05T10:19:11.718Z,16.33
2017-12-05T10:21:39.400Z,15.57
2017-12-05T10:24:07.282Z,12.47
2017-12-05T10:26:35.770Z,9.23
2017-12-05T10:29:04.549Z,10.50
2017-12-05T10:31:32.229Z,9.17
2017-12-05T10:34:00.721Z,14.60
2017-12-05T10:36:28.420Z,16.13
2017-12-05T10:38:56.101Z,6.30
2017-12-05T10:41:23.812Z,9.93
2017-12-05T10:43:51.527Z,14.50
2017-12-05T10:46:19.238Z,11.77
2017-12-05T10:48:46.976Z,13.70
2017-12-05T10:51:15.452Z,15.10
2017-12-05T10:53:43.929Z,14.53
2017-12-05T10:56:11.667Z,14.60
2017-12-05T10:58:40.035Z,14.70
2017-12-05T11:01:08.404Z,8.60
2017-12-05T11:03:36.785Z,10.87
2017-12-05T11:06:05.189Z,14.93
2017-12-05T11:08:33.564Z,13.87
2017-12-05T11:11:01.774Z,8.10
2017-12-05T11:13:30.912Z,6.97
2017-12-05T11:15:59.290Z,14.50
2017-12-05T11:18:27.696Z,15.07
2017-12-05T11:20:55.577Z,14.10
2017-12-05T11:23:23.949Z,11.37
2017-12-05T11:25:52.176Z,13.67
2017-12-05T11:28:20.364Z,13.00
2017-12-05T11:30:48.452Z,13.13
2017-12-05T11:33:17.764Z,15.27
2017-12-05T11:35:45.812Z,15.93
2017-12-05T11:38:14.215Z,10.90
2017-12-05T11:40:42.603Z,16.03
2017-12-05T11:43:10.791Z,13.13
2017-12-05T11:45:40.126Z,11.47
2017-12-05T11:48:08.868Z,11.60
2017-12-05T11:50:36.983Z,13.50
2017-12-05T11:53:05.362Z,9.90
2017-12-05T11:55:33.425Z,8.97
2017-12-05T11:58:01.796Z,14.73
2017-12-05T12:00:29.836Z,8.13
2017-12-05T12:02:58.986Z,11.30
2017-12-05T12:05:26.684Z,8.53
2017-12-05T12:07:55.988Z,15.93
2017-12-05T12:10:25.177Z,15.77
2017-12-05T12:12:53.544Z,10.90
2017-12-05T12:15:21.921Z,14.50
2017-12-05T12:17:50.316Z,14.77
2017-12-05T12:20:18.688Z,12.87
2017-12-05T12:22:47.088Z,11.67
2017-12-05T12:25:15.946Z,15.67
2017-12-05T12:27:44.320Z,15.53
2017-12-05T12:30:12.709Z,11.70
2017-12-05T12:32:40.766Z,11.37
2017-12-05T12:35:09.164Z,10.33
2017-12-05T12:37:37.560Z,13.10
2017-12-05T12:40:06.716Z,12.20
2017-12-05T12:42:35.100Z,14.13
2017-12-05T12:45:05.726Z,6.80
2017-12-05T12:47:34.111Z,10.20
2017-12-05T12:50:02.488Z,8.77
2017-12-05T12:52:30.672Z,11.40
2017-12-05T12:54:59.092Z,12.97
2017-12-05T12:57:27.466Z,13.40
2017-12-05T12:59:55.851Z,14.73
2017-12-05T13:02:24.247Z,12.97
2017-12-05T13:04:52.626Z,14.33
2017-12-05T13:07:21.000Z,11.57
2017-12-05T13:09:49.394Z,11.50
2017-12-05T13:12:17.576Z,8.77
2017-12-05T13:14:46.546Z,12.50
2017-12-05T13:17:15.027Z,7.50
2017-12-05T13:19:43.400Z,12.20
2017-12-05T13:22:11.782Z,5.80
2017-12-05T13:24:40.204Z,12.97
2017-12-05T13:27:08.586Z,10.57
2017-12-05T13:29:36.632Z,11.50
2017-12-05T13:32:05.034Z,15.70
2017-12-05T13:34:33.481Z,12.13
2017-12-05T13:37:01.854Z,14.77
2017-12-05T13:39:30.261Z,9.43
2017-12-05T13:41:58.648Z,14.83
2017-12-05T13:44:27.012Z,13.03
2017-12-05T13:46:55.392Z,9.73
2017-12-05T13:49:23.770Z,15.40
2017-12-05T13:51:52.153Z,13.67
2017-12-05T13:54:20.557Z,14.03
2017-12-05T13:56:49.552Z,10.00
2017-12-05T13:59:18.982Z,12.03
2017-12-05T14:01:48.344Z,12.20
2017-12-05T14:04:16.721Z,12.83
